Terminal Aerodrome Forecast
Issued by NWS Newport/Morehead City, NC

Home | Current Version | Previous Version | Text Only | Print | Product List | Glossary Off
Versions: 1 2 3 4 5 6 7 8 9 10 11 12 13

322
FTUS42 KMHX 201141
TAFEWN
TAF
KEWN 201141Z 2012/2112 00000KT P6SM SCT040
     FM201700 23007KT P6SM VCSH SCT045
     FM210000 21005KT P6SM SCT040=

USA.gov is the U.S. government's official web portal to all federal, state and local government web resources and services.